<?xml version="1.0" encoding="UTF-8" standalone="no" ?><gpx xmlns="http://www.topografix.com/GPX/1/1" xmlns:gpxx="http://www.garmin.com/xmlschemas/GpxExtensions/v3" xmlns:wptx1="http://www.garmin.com/xmlschemas/WaypointExtension/v1" xmlns:gpxtpx="http://www.garmin.com/xmlschemas/TrackPointExtension/v1" creator="GuideVTT.com" version="1.1" xmlns:xsi="http://www.w3.org/2001/XMLSchema-instance" xsi:schemaLocation="http://www.topografix.com/GPX/1/1 http://www.topografix.com/GPX/1/1/gpx.xsd http://www.garmin.com/xmlschemas/GpxExtensions/v3 http://www8.garmin.com/xmlschemas/GpxExtensionsv3.xsd http://www.garmin.com/xmlschemas/WaypointExtension/v1 http://www8.garmin.com/xmlschemas/WaypointExtensionv1.xsd http://www.garmin.com/xmlschemas/TrackPointExtension/v1 http://www.garmin.com/xmlschemas/TrackPointExtensionv1.xsd">
<metadata><link href="http://www.garmin.com"><text>Garmin International</text></link><time>2013-06-22T15:13:50Z</time></metadata>
<trk><name>20100606travaille.gpx</name><extensions><gpxx:TrackExtension><gpxx:DisplayColor>Cyan</gpxx:DisplayColor></gpxx:TrackExtension></extensions><trkseg>
<trkpt lat="46.35057874" lon="7.00954087"><ele></ele><time>2014-5-2T7:39:47Z</time></trkpt>
<trkpt lat="46.36316241" lon="7.02463978"><ele></ele><time>2014-5-2T7:39:50Z</time></trkpt>
<trkpt lat="46.35708687" lon="7.02139741"><ele></ele><time>2014-5-2T7:39:53Z</time></trkpt>
<trkpt lat="46.37036640" lon="7.02631976"><ele></ele><time>2014-5-2T7:39:56Z</time></trkpt>
<trkpt lat="46.37036640" lon="7.02631976"><ele></ele><time>2014-5-2T7:39:59Z</time></trkpt>
<trkpt lat="46.33880384" lon="7.00704139"><ele></ele><time>2014-5-2T7:40:2Z</time></trkpt>
<trkpt lat="46.33880384" lon="7.00704139"><ele></ele><time>2014-5-2T7:40:5Z</time></trkpt>
<trkpt lat="47.62420440" lon="1.93005642"><ele></ele><time>2014-5-2T7:40:8Z</time></trkpt>
<trkpt lat="46.56986265" lon="6.68918562"><ele></ele><time>2014-5-2T7:40:11Z</time></trkpt>
<trkpt lat="46.34269212" lon="7.01105079"><ele></ele><time>2014-5-2T7:40:14Z</time></trkpt>
<trkpt lat="46.34269212" lon="7.01105079"><ele></ele><time>2014-5-2T7:40:17Z</time></trkpt>
<trkpt lat="47.61929118" lon="1.93647402"><ele></ele><time>2014-5-2T7:40:20Z</time></trkpt>
<trkpt lat="38.85554999" lon="-94.79901667"><ele></ele><time>2014-5-2T7:40:23Z</time></trkpt>
<trkpt lat="50.98288329" lon="-1.46389998"><ele></ele><time>2014-5-2T7:40:26Z</time></trkpt>
<trkpt lat="33.33018995" lon="-111.94611001"><ele></ele><time>2014-5-2T7:40:29Z</time></trkpt>
<trkpt lat="25.06178336" lon="121.64026667"><ele></ele><time>2014-5-2T7:40:32Z</time></trkpt>
<trkpt lat="46.35672150" lon="7.01535464"><ele></ele><time>2014-5-2T7:40:35Z</time></trkpt>
<trkpt lat="46.34961692" lon="7.00685799"><ele></ele><time>2014-5-2T7:40:38Z</time></trkpt>
<trkpt lat="46.58114126" lon="6.59533186"><ele></ele><time>2014-5-2T7:40:41Z</time></trkpt>
<trkpt lat="46.58114126" lon="6.59533186"><ele></ele><time>2014-5-2T7:40:44Z</time></trkpt>
<trkpt lat="44.62174022" lon="4.28196355"><ele></ele><time>2014-5-2T7:40:47Z</time></trkpt>
<trkpt lat="46.56315755" lon="6.60320263"><ele></ele><time>2014-5-2T7:40:50Z</time></trkpt>
<trkpt lat="46.56315755" lon="6.60320263"><ele></ele><time>2014-5-2T7:40:53Z</time></trkpt>
<trkpt lat="46.56315755" lon="6.60320263"><ele></ele><time>2014-5-2T7:40:56Z</time></trkpt>
<trkpt lat="46.36632155" lon="7.01482248"><ele></ele><time>2014-5-2T7:40:59Z</time></trkpt>
<trkpt lat="46.36632155" lon="7.01482248"><ele></ele><time>2014-5-2T7:41:2Z</time></trkpt>
<trkpt lat="46.35303497" lon="7.02502728"><ele></ele><time>2014-5-2T7:41:5Z</time></trkpt>
<trkpt lat="46.38977051" lon="7.09442139"><ele></ele><time>2014-5-2T7:41:8Z</time></trkpt>
<trkpt lat="46.34582520" lon="7.00927734"><ele></ele><time>2014-5-2T7:41:11Z</time></trkpt>
<trkpt lat="46.34355068" lon="7.01309681"><ele></ele><time>2014-5-2T7:41:14Z</time></trkpt>
<trkpt lat="46.37432098" lon="7.07706213"><ele></ele><time>2014-5-2T7:41:17Z</time></trkpt>
<trkpt lat="46.36822701" lon="7.07646132"><ele></ele><time>2014-5-2T7:41:20Z</time></trkpt>
<trkpt lat="46.36088848" lon="7.06169844"><ele></ele><time>2014-5-2T7:41:23Z</time></trkpt>
<trkpt lat="46.35867834" lon="7.04684973"><ele></ele><time>2014-5-2T7:41:26Z</time></trkpt>
<trkpt lat="46.56310374" lon="6.60283333"><ele></ele><time>2014-5-2T7:41:29Z</time></trkpt>
<trkpt lat="46.56271935" lon="6.60304070"><ele></ele><time>2014-5-2T7:41:32Z</time></trkpt>
<trkpt lat="46.56263351" lon="6.60377026"><ele></ele><time>2014-5-2T7:41:35Z</time></trkpt>
<trkpt lat="46.58082962" lon="6.60587311"><ele></ele><time>2014-5-2T7:41:38Z</time></trkpt>
<trkpt lat="46.58095837" lon="6.60578728"><ele></ele><time>2014-5-2T7:41:41Z</time></trkpt>
<trkpt lat="46.58258915" lon="6.60050869"><ele></ele><time>2014-5-2T7:41:44Z</time></trkpt>
<trkpt lat="46.58267498" lon="6.60020828"><ele></ele><time>2014-5-2T7:41:47Z</time></trkpt>
<trkpt lat="46.58082962" lon="6.59570217"><ele></ele><time>2014-5-2T7:41:50Z</time></trkpt>
<trkpt lat="46.56310374" lon="6.60283333"><ele></ele><time>2014-5-2T7:41:53Z</time></trkpt>
<trkpt lat="46.56271935" lon="6.60304070"><ele></ele><time>2014-5-2T7:41:56Z</time></trkpt>
<trkpt lat="46.56263351" lon="6.60377026"><ele></ele><time>2014-5-2T7:41:59Z</time></trkpt>
<trkpt lat="46.55696869" lon="6.60132408"><ele></ele><time>2014-5-2T7:42:2Z</time></trkpt>
<trkpt lat="46.55417919" lon="6.62033558"><ele></ele><time>2014-5-2T7:42:5Z</time></trkpt>
<trkpt lat="46.55143261" lon="6.62093639"><ele></ele><time>2014-5-2T7:42:8Z</time></trkpt>
<trkpt lat="46.55104637" lon="6.62372589"><ele></ele><time>2014-5-2T7:42:11Z</time></trkpt>
<trkpt lat="46.54868603" lon="6.62381172"><ele></ele><time>2014-5-2T7:42:14Z</time></trkpt>
<trkpt lat="46.32123470" lon="6.94001198"><ele></ele><time>2014-5-2T7:42:17Z</time></trkpt>
<trkpt lat="46.32071972" lon="6.93863869"><ele></ele><time>2014-5-2T7:42:20Z</time></trkpt>
<trkpt lat="46.32312298" lon="6.95138454"><ele></ele><time>2014-5-2T7:42:23Z</time></trkpt>
<trkpt lat="46.32719994" lon="6.95898056"><ele></ele><time>2014-5-2T7:42:26Z</time></trkpt>
<trkpt lat="46.31913185" lon="6.97048187"><ele></ele><time>2014-5-2T7:42:29Z</time></trkpt>
<trkpt lat="46.31896019" lon="6.97078228"><ele></ele><time>2014-5-2T7:42:32Z</time></trkpt>
<trkpt lat="46.32183552" lon="7.00073719"><ele></ele><time>2014-5-2T7:42:35Z</time></trkpt>
<trkpt lat="46.36110306" lon="7.04923153"><ele></ele><time>2014-5-2T7:42:38Z</time></trkpt>
<trkpt lat="46.36054516" lon="7.05395222"><ele></ele><time>2014-5-2T7:42:41Z</time></trkpt>
<trkpt lat="46.36256218" lon="7.05051899"><ele></ele><time>2014-5-2T7:42:44Z</time></trkpt>
<trkpt lat="46.35436535" lon="7.03494072"><ele></ele><time>2014-5-2T7:42:47Z</time></trkpt>
<trkpt lat="46.34191990" lon="7.01743126"><ele></ele><time>2014-5-2T7:42:50Z</time></trkpt>
<trkpt lat="46.34264946" lon="7.01352596"><ele></ele><time>2014-5-2T7:42:53Z</time></trkpt>
<trkpt lat="46.34282112" lon="7.01331139"><ele></ele><time>2014-5-2T7:42:56Z</time></trkpt>
<trkpt lat="46.34294987" lon="7.01331139"><ele></ele><time>2014-5-2T7:42:59Z</time></trkpt>
<trkpt lat="46.34307861" lon="7.01271057"><ele></ele><time>2014-5-2T7:43:2Z</time></trkpt>
<trkpt lat="46.35008396" lon="7.15524391"><ele></ele><time>2014-5-2T7:43:5Z</time></trkpt>
<trkpt lat="46.35008396" lon="7.15524391"><ele></ele><time>2014-5-2T7:43:8Z</time></trkpt>
<trkpt lat="46.36064725" lon="7.00961044"><ele></ele><time>2014-5-2T7:43:11Z</time></trkpt>
<trkpt lat="46.36064725" lon="7.00961044"><ele></ele><time>2014-5-2T7:43:14Z</time></trkpt>
<trkpt lat="46.35950496" lon="7.00221173"><ele></ele><time>2014-5-2T7:43:17Z</time></trkpt>
<trkpt lat="46.09371331" lon="7.23317659"><ele></ele><time>2014-5-2T7:43:20Z</time></trkpt>
<trkpt lat="46.34672491" lon="7.01796770"><ele></ele><time>2014-5-2T7:43:23Z</time></trkpt>
<trkpt lat="46.34672491" lon="7.01796770"><ele></ele><time>2014-5-2T7:43:26Z</time></trkpt>
<trkpt lat="46.57982497" lon="6.60320330"><ele></ele><time>2014-5-2T7:43:29Z</time></trkpt>
<trkpt lat="46.69453064" lon="6.76001539"><ele></ele><time>2014-5-2T7:43:32Z</time></trkpt>
<trkpt lat="" lon=""><ele></ele><time>2014-5-2T7:43:35Z</time></trkpt>
<trkpt lat="46.67462111" lon="6.80060148"><ele></ele><time>2014-5-2T7:43:38Z</time></trkpt>
<trkpt lat="46.67444944" lon="6.80042982"><ele></ele><time>2014-5-2T7:43:41Z</time></trkpt>
<trkpt lat="46.67438507" lon="6.80032253"><ele></ele><time>2014-5-2T7:43:44Z</time></trkpt>
<trkpt lat="46.67387009" lon="6.79942131"><ele></ele><time>2014-5-2T7:43:47Z</time></trkpt>
<trkpt lat="46.67337656" lon="6.79858446"><ele></ele><time>2014-5-2T7:43:50Z</time></trkpt>
<trkpt lat="46.67341948" lon="6.79832697"><ele></ele><time>2014-5-2T7:43:53Z</time></trkpt>
<trkpt lat="46.67301178" lon="6.79789782"><ele></ele><time>2014-5-2T7:43:56Z</time></trkpt>
<trkpt lat="46.67284012" lon="6.79766178"><ele></ele><time>2014-5-2T7:43:59Z</time></trkpt>
<trkpt lat="46.67284012" lon="6.79759741"><ele></ele><time>2014-5-2T7:44:2Z</time></trkpt>
<trkpt lat="46.67320490" lon="6.79733992"><ele></ele><time>2014-5-2T7:44:5Z</time></trkpt>
<trkpt lat="46.67337656" lon="6.79731846"><ele></ele><time>2014-5-2T7:44:8Z</time></trkpt>
<trkpt lat="46.67365551" lon="6.79723263"><ele></ele><time>2014-5-2T7:44:11Z</time></trkpt>
<trkpt lat="46.67374134" lon="6.79721117"><ele></ele><time>2014-5-2T7:44:14Z</time></trkpt>
<trkpt lat="46.67391300" lon="6.79721117"><ele></ele><time>2014-5-2T7:44:17Z</time></trkpt>
<trkpt lat="46.67395592" lon="6.79723263"><ele></ele><time>2014-5-2T7:44:20Z</time></trkpt>
<trkpt lat="46.67408466" lon="6.79759741"><ele></ele><time>2014-5-2T7:44:23Z</time></trkpt>
<trkpt lat="46.67417049" lon="6.79783344"><ele></ele><time>2014-5-2T7:44:26Z</time></trkpt>
<trkpt lat="46.67434216" lon="6.79821968"><ele></ele><time>2014-5-2T7:44:29Z</time></trkpt>
<trkpt lat="46.67468548" lon="6.79849863"><ele></ele><time>2014-5-2T7:44:32Z</time></trkpt>
<trkpt lat="46.67483568" lon="6.79860592"><ele></ele><time>2014-5-2T7:44:35Z</time></trkpt>
<trkpt lat="46.67513609" lon="6.79877758"><ele></ele><time>2014-5-2T7:44:38Z</time></trkpt>
<trkpt lat="46.67530775" lon="6.79882050"><ele></ele><time>2014-5-2T7:44:41Z</time></trkpt>
<trkpt lat="46.67530775" lon="6.79884195"><ele></ele><time>2014-5-2T7:44:44Z</time></trkpt>
<trkpt lat="46.67556524" lon="6.79899216"><ele></ele><time>2014-5-2T7:44:47Z</time></trkpt>
<trkpt lat="46.67569399" lon="6.79903507"><ele></ele><time>2014-5-2T7:44:50Z</time></trkpt>
<trkpt lat="46.67577982" lon="6.79903507"><ele></ele><time>2014-5-2T7:44:53Z</time></trkpt>
<trkpt lat="46.67601585" lon="6.79879904"><ele></ele><time>2014-5-2T7:44:56Z</time></trkpt>
<trkpt lat="46.67595148" lon="6.79862738"><ele></ele><time>2014-5-2T7:44:59Z</time></trkpt>
<trkpt lat="46.67571545" lon="6.79819822"><ele></ele><time>2014-5-2T7:45:2Z</time></trkpt>
<trkpt lat="46.67562962" lon="6.79804802"><ele></ele><time>2014-5-2T7:45:5Z</time></trkpt>
<trkpt lat="46.67558670" lon="6.79759741"><ele></ele><time>2014-5-2T7:45:8Z</time></trkpt>
<trkpt lat="46.67562962" lon="6.79746866"><ele></ele><time>2014-5-2T7:45:11Z</time></trkpt>
<trkpt lat="46.67597294" lon="6.79729700"><ele></ele><time>2014-5-2T7:45:14Z</time></trkpt>
<trkpt lat="46.67623043" lon="6.79712534"><ele></ele><time>2014-5-2T7:45:17Z</time></trkpt>
<trkpt lat="46.67629480" lon="6.79686785"><ele></ele><time>2014-5-2T7:45:20Z</time></trkpt>
<trkpt lat="46.67631626" lon="6.79661036"><ele></ele><time>2014-5-2T7:45:23Z</time></trkpt>
<trkpt lat="46.67635918" lon="6.79633141"><ele></ele><time>2014-5-2T7:45:26Z</time></trkpt>
<trkpt lat="46.67638063" lon="6.79598808"><ele></ele><time>2014-5-2T7:45:29Z</time></trkpt>
<trkpt lat="46.67635918" lon="6.79558039"><ele></ele><time>2014-5-2T7:45:32Z</time></trkpt>
<trkpt lat="46.67633772" lon="6.79521561"><ele></ele><time>2014-5-2T7:45:35Z</time></trkpt>
<trkpt lat="46.67631626" lon="6.79485083"><ele></ele><time>2014-5-2T7:45:38Z</time></trkpt>
<trkpt lat="46.67627335" lon="6.79461479"><ele></ele><time>2014-5-2T7:45:41Z</time></trkpt>
<trkpt lat="46.67608023" lon="6.79399252"><ele></ele><time>2014-5-2T7:45:44Z</time></trkpt>
<trkpt lat="46.67599440" lon="6.79373503"><ele></ele><time>2014-5-2T7:45:47Z</time></trkpt>
<trkpt lat="46.67597294" lon="6.79371357"><ele></ele><time>2014-5-2T7:45:50Z</time></trkpt>
<trkpt lat="46.67590857" lon="6.79354191"><ele></ele><time>2014-5-2T7:45:53Z</time></trkpt>
<trkpt lat="46.67584419" lon="6.79326296"><ele></ele><time>2014-5-2T7:45:56Z</time></trkpt>
<trkpt lat="46.67580128" lon="6.79296255"><ele></ele><time>2014-5-2T7:45:59Z</time></trkpt>
<trkpt lat="46.67569399" lon="6.79249048"><ele></ele><time>2014-5-2T7:46:2Z</time></trkpt>
<trkpt lat="46.67558670" lon="6.79193258"><ele></ele><time>2014-5-2T7:46:5Z</time></trkpt>
<trkpt lat="46.67554379" lon="6.79184675"><ele></ele><time>2014-5-2T7:46:8Z</time></trkpt>
<trkpt lat="46.67554379" lon="6.79182529"><ele></ele><time>2014-5-2T7:46:11Z</time></trkpt>
<trkpt lat="46.67541504" lon="6.79171801"><ele></ele><time>2014-5-2T7:46:14Z</time></trkpt>
<trkpt lat="46.67541504" lon="6.79169655"><ele></ele><time>2014-5-2T7:46:17Z</time></trkpt>
<trkpt lat="46.67515755" lon="6.79148197"><ele></ele><time>2014-5-2T7:46:20Z</time></trkpt>
<trkpt lat="46.67492151" lon="6.79128885"><ele></ele><time>2014-5-2T7:46:23Z</time></trkpt>
<trkpt lat="46.67477131" lon="6.79107428"><ele></ele><time>2014-5-2T7:46:26Z</time></trkpt>
<trkpt lat="46.67466402" lon="6.79092407"><ele></ele><time>2014-5-2T7:46:29Z</time></trkpt>
<trkpt lat="46.67459965" lon="6.79070950"><ele></ele><time>2014-5-2T7:46:32Z</time></trkpt>
<trkpt lat="46.67468548" lon="6.79058075"><ele></ele><time>2014-5-2T7:46:35Z</time></trkpt>
<trkpt lat="46.67494297" lon="6.79070950"><ele></ele><time>2014-5-2T7:46:38Z</time></trkpt>
<trkpt lat="46.67498589" lon="6.79073095"><ele></ele><time>2014-5-2T7:46:41Z</time></trkpt>
<trkpt lat="46.67505026" lon="6.79081678"><ele></ele><time>2014-5-2T7:46:44Z</time></trkpt>
<trkpt lat="46.67530775" lon="6.79094553"><ele></ele><time>2014-5-2T7:46:47Z</time></trkpt>
<trkpt lat="46.67571545" lon="6.79122448"><ele></ele><time>2014-5-2T7:46:50Z</time></trkpt>
<trkpt lat="46.67582273" lon="6.79131031"><ele></ele><time>2014-5-2T7:46:53Z</time></trkpt>
<trkpt lat="46.67588711" lon="6.79128885"><ele></ele><time>2014-5-2T7:46:56Z</time></trkpt>
<trkpt lat="46.67590857" lon="6.79126740"><ele></ele><time>2014-5-2T7:46:59Z</time></trkpt>
<trkpt lat="46.67588711" lon="6.79120302"><ele></ele><time>2014-5-2T7:47:2Z</time></trkpt>
<trkpt lat="46.67569399" lon="6.79090261"><ele></ele><time>2014-5-2T7:47:5Z</time></trkpt>
<trkpt lat="46.67556524" lon="6.79075241"><ele></ele><time>2014-5-2T7:47:8Z</time></trkpt>
<trkpt lat="46.67545795" lon="6.79060221"><ele></ele><time>2014-5-2T7:47:11Z</time></trkpt>
<trkpt lat="46.67541504" lon="6.79058075"><ele></ele><time>2014-5-2T7:47:14Z</time></trkpt>
<trkpt lat="46.67526484" lon="6.79032326"><ele></ele><time>2014-5-2T7:47:17Z</time></trkpt>
<trkpt lat="46.67511463" lon="6.79006577"><ele></ele><time>2014-5-2T7:47:20Z</time></trkpt>
<trkpt lat="46.67500734" lon="6.78976536"><ele></ele><time>2014-5-2T7:47:23Z</time></trkpt>
<trkpt lat="46.67492151" lon="6.78944349"><ele></ele><time>2014-5-2T7:47:26Z</time></trkpt>
<trkpt lat="46.67494297" lon="6.78925037"><ele></ele><time>2014-5-2T7:47:29Z</time></trkpt>
<trkpt lat="46.67494297" lon="6.78914309"><ele></ele><time>2014-5-2T7:47:32Z</time></trkpt>
<trkpt lat="46.67492151" lon="6.78910017"><ele></ele><time>2014-5-2T7:47:35Z</time></trkpt>
<trkpt lat="46.67492151" lon="6.78905725"><ele></ele><time>2014-5-2T7:47:38Z</time></trkpt>
<trkpt lat="46.67494297" lon="6.78899288"><ele></ele><time>2014-5-2T7:47:41Z</time></trkpt>
<trkpt lat="46.67494297" lon="6.78892851"><ele></ele><time>2014-5-2T7:47:44Z</time></trkpt>
<trkpt lat="46.67496443" lon="6.78869247"><ele></ele><time>2014-5-2T7:47:47Z</time></trkpt>
<trkpt lat="46.67490005" lon="6.78832769"><ele></ele><time>2014-5-2T7:47:50Z</time></trkpt>
<trkpt lat="46.67492151" lon="6.78832769"><ele></ele><time>2014-5-2T7:47:53Z</time></trkpt>
<trkpt lat="46.67494297" lon="6.78796291"><ele></ele><time>2014-5-2T7:47:56Z</time></trkpt>
<trkpt lat="46.67494297" lon="6.78770542"><ele></ele><time>2014-5-2T7:47:59Z</time></trkpt>
<trkpt lat="46.67494297" lon="6.78768396"><ele></ele><time>2014-5-2T7:48:2Z</time></trkpt>
<trkpt lat="46.67494297" lon="6.78755522"><ele></ele><time>2014-5-2T7:48:5Z</time></trkpt>
<trkpt lat="46.67485714" lon="6.78719044"><ele></ele><time>2014-5-2T7:48:8Z</time></trkpt>
<trkpt lat="46.67477131" lon="6.78693295"><ele></ele><time>2014-5-2T7:48:11Z</time></trkpt>
<trkpt lat="46.67474985" lon="6.78689003"><ele></ele><time>2014-5-2T7:48:14Z</time></trkpt>
<trkpt lat="46.67466402" lon="6.78665400"><ele></ele><time>2014-5-2T7:48:17Z</time></trkpt>
<trkpt lat="46.67455673" lon="6.78643942"><ele></ele><time>2014-5-2T7:48:20Z</time></trkpt>
<trkpt lat="46.67449236" lon="6.78631067"><ele></ele><time>2014-5-2T7:48:23Z</time></trkpt>
<trkpt lat="46.67447090" lon="6.78624630"><ele></ele><time>2014-5-2T7:48:26Z</time></trkpt>
<trkpt lat="46.67427778" lon="6.78596735"><ele></ele><time>2014-5-2T7:48:29Z</time></trkpt>
<trkpt lat="46.67410612" lon="6.78568840"><ele></ele><time>2014-5-2T7:48:32Z</time></trkpt>
<trkpt lat="46.67389154" lon="6.78519487"><ele></ele><time>2014-5-2T7:48:35Z</time></trkpt>
<trkpt lat="46.67371988" lon="6.78457260"><ele></ele><time>2014-5-2T7:48:38Z</time></trkpt>
<trkpt lat="46.67359114" lon="6.78414345"><ele></ele><time>2014-5-2T7:48:41Z</time></trkpt>
<trkpt lat="46.67350531" lon="6.78386450"><ele></ele><time>2014-5-2T7:48:44Z</time></trkpt>
<trkpt lat="46.67341948" lon="6.78358555"><ele></ele><time>2014-5-2T7:48:47Z</time></trkpt>
<trkpt lat="46.67329073" lon="6.78317785"><ele></ele><time>2014-5-2T7:48:50Z</time></trkpt>
<trkpt lat="46.67324781" lon="6.78270578"><ele></ele><time>2014-5-2T7:48:53Z</time></trkpt>
<trkpt lat="46.67335510" lon="6.78240538"><ele></ele><time>2014-5-2T7:48:56Z</time></trkpt>
<trkpt lat="46.67344093" lon="6.78206205"><ele></ele><time>2014-5-2T7:48:59Z</time></trkpt>
<trkpt lat="46.67354822" lon="6.78176165"><ele></ele><time>2014-5-2T7:49:2Z</time></trkpt>
<trkpt lat="46.67359114" lon="6.78165436"><ele></ele><time>2014-5-2T7:49:5Z</time></trkpt>
<trkpt lat="46.67374134" lon="6.78137541"><ele></ele><time>2014-5-2T7:49:8Z</time></trkpt>
<trkpt lat="46.67374134" lon="6.78135395"><ele></ele><time>2014-5-2T7:49:11Z</time></trkpt>
<trkpt lat="46.67387009" lon="6.78107500"><ele></ele><time>2014-5-2T7:49:14Z</time></trkpt>
<trkpt lat="46.67395592" lon="6.78077459"><ele></ele><time>2014-5-2T7:49:17Z</time></trkpt>
<trkpt lat="46.67402029" lon="6.78053856"><ele></ele><time>2014-5-2T7:49:20Z</time></trkpt>
<trkpt lat="46.67406321" lon="6.78015232"><ele></ele><time>2014-5-2T7:49:23Z</time></trkpt>
<trkpt lat="46.67408466" lon="6.78008795"><ele></ele><time>2014-5-2T7:49:26Z</time></trkpt>
<trkpt lat="46.67419195" lon="6.77993774"><ele></ele><time>2014-5-2T7:49:29Z</time></trkpt>
<trkpt lat="46.67440653" lon="6.77972317"><ele></ele><time>2014-5-2T7:49:32Z</time></trkpt>
<trkpt lat="46.67455673" lon="6.77946568"><ele></ele><time>2014-5-2T7:49:35Z</time></trkpt>
<trkpt lat="46.67464256" lon="6.77918673"><ele></ele><time>2014-5-2T7:49:38Z</time></trkpt>
<trkpt lat="46.67472839" lon="6.77886486"><ele></ele><time>2014-5-2T7:49:41Z</time></trkpt>
<trkpt lat="46.67479277" lon="6.77862883"><ele></ele><time>2014-5-2T7:49:44Z</time></trkpt>
<trkpt lat="46.67492151" lon="6.77826405"><ele></ele><time>2014-5-2T7:49:47Z</time></trkpt>
<trkpt lat="46.67502880" lon="6.77789927"><ele></ele><time>2014-5-2T7:49:50Z</time></trkpt>
<trkpt lat="46.67515755" lon="6.77762032"><ele></ele><time>2014-5-2T7:49:53Z</time></trkpt>
<trkpt lat="46.67528629" lon="6.77749157"><ele></ele><time>2014-5-2T7:49:56Z</time></trkpt>
<trkpt lat="46.67532921" lon="6.77749157"><ele></ele><time>2014-5-2T7:49:59Z</time></trkpt>
<trkpt lat="46.67532921" lon="6.77751303"><ele></ele><time>2014-5-2T7:50:2Z</time></trkpt>
<trkpt lat="46.67532921" lon="6.77747011"><ele></ele><time>2014-5-2T7:50:5Z</time></trkpt>
<trkpt lat="46.67535067" lon="6.77749157"><ele></ele><time>2014-5-2T7:50:8Z</time></trkpt>
<trkpt lat="46.67539358" lon="6.77749157"><ele></ele><time>2014-5-2T7:50:11Z</time></trkpt>
<trkpt lat="46.67556524" lon="6.77774906"><ele></ele><time>2014-5-2T7:50:14Z</time></trkpt>
<trkpt lat="46.67577982" lon="6.77802801"><ele></ele><time>2014-5-2T7:50:17Z</time></trkpt>
<trkpt lat="46.67601585" lon="6.77841425"><ele></ele><time>2014-5-2T7:50:20Z</time></trkpt>
<trkpt lat="46.67644501" lon="6.77910089"><ele></ele><time>2014-5-2T7:50:23Z</time></trkpt>
<trkpt lat="46.67653084" lon="6.77931547"><ele></ele><time>2014-5-2T7:50:26Z</time></trkpt>
<trkpt lat="46.67668104" lon="6.77970171"><ele></ele><time>2014-5-2T7:50:29Z</time></trkpt>
<trkpt lat="46.67680979" lon="6.78002357"><ele></ele><time>2014-5-2T7:50:32Z</time></trkpt>
<trkpt lat="46.67683125" lon="6.78008795"><ele></ele><time>2014-5-2T7:50:35Z</time></trkpt>
<trkpt lat="46.67685270" lon="6.78015232"><ele></ele><time>2014-5-2T7:50:38Z</time></trkpt>
<trkpt lat="46.67691708" lon="6.78021669"><ele></ele><time>2014-5-2T7:50:41Z</time></trkpt>
<trkpt lat="46.67719603" lon="6.78015232"><ele></ele><time>2014-5-2T7:50:44Z</time></trkpt>
<trkpt lat="46.67820454" lon="6.78053856"><ele></ele><time>2014-5-2T7:50:47Z</time></trkpt>
<trkpt lat="46.67809725" lon="6.78109646"><ele></ele><time>2014-5-2T7:50:50Z</time></trkpt>
<trkpt lat="46.67805433" lon="6.78120375"><ele></ele><time>2014-5-2T7:50:53Z</time></trkpt>
<trkpt lat="46.67794704" lon="6.78167582"><ele></ele><time>2014-5-2T7:50:56Z</time></trkpt>
<trkpt lat="46.67792559" lon="6.78180456"><ele></ele><time>2014-5-2T7:50:59Z</time></trkpt>
<trkpt lat="46.67760372" lon="6.78238392"><ele></ele><time>2014-5-2T7:51:2Z</time></trkpt>
<trkpt lat="46.67749643" lon="6.78249121"><ele></ele><time>2014-5-2T7:51:5Z</time></trkpt>
<trkpt lat="46.67745352" lon="6.78268433"><ele></ele><time>2014-5-2T7:51:8Z</time></trkpt>
<trkpt lat="46.67756081" lon="6.78315639"><ele></ele><time>2014-5-2T7:51:11Z</time></trkpt>
<trkpt lat="46.67758226" lon="6.78330660"><ele></ele><time>2014-5-2T7:51:14Z</time></trkpt>
<trkpt lat="46.67794704" lon="6.78356409"><ele></ele><time>2014-5-2T7:51:17Z</time></trkpt>
<trkpt lat="46.67801142" lon="6.78358555"><ele></ele><time>2014-5-2T7:51:20Z</time></trkpt>
<trkpt lat="46.67833328" lon="6.78397179"><ele></ele><time>2014-5-2T7:51:23Z</time></trkpt>
<trkpt lat="46.67874098" lon="6.78452969"><ele></ele><time>2014-5-2T7:51:26Z</time></trkpt>
<trkpt lat="46.67899847" lon="6.78485155"><ele></ele><time>2014-5-2T7:51:29Z</time></trkpt>
<trkpt lat="46.67923450" lon="6.78532362"><ele></ele><time>2014-5-2T7:51:32Z</time></trkpt>
<trkpt lat="46.67959929" lon="6.78607464"><ele></ele><time>2014-5-2T7:51:35Z</time></trkpt>
<trkpt lat="46.67962074" lon="6.78613901"><ele></ele><time>2014-5-2T7:51:38Z</time></trkpt>
<trkpt lat="46.67981386" lon="6.78641796"><ele></ele><time>2014-5-2T7:51:41Z</time></trkpt>
<trkpt lat="46.67994261" lon="6.78669691"><ele></ele><time>2014-5-2T7:51:44Z</time></trkpt>
<trkpt lat="46.68000698" lon="6.78684711"><ele></ele><time>2014-5-2T7:51:47Z</time></trkpt>
<trkpt lat="46.68030739" lon="6.78731918"><ele></ele><time>2014-5-2T7:51:50Z</time></trkpt>
<trkpt lat="46.68052197" lon="6.78759813"><ele></ele><time>2014-5-2T7:51:53Z</time></trkpt>
<trkpt lat="46.68065071" lon="6.78776979"><ele></ele><time>2014-5-2T7:51:56Z</time></trkpt>
<trkpt lat="46.68073654" lon="6.78789854"><ele></ele><time>2014-5-2T7:51:59Z</time></trkpt>
<trkpt lat="46.68082237" lon="6.78809166"><ele></ele><time>2014-5-2T7:52:2Z</time></trkpt>
<trkpt lat="46.68084383" lon="6.78813457"><ele></ele><time>2014-5-2T7:52:5Z</time></trkpt>
<trkpt lat="46.68095112" lon="6.78843498"><ele></ele><time>2014-5-2T7:52:8Z</time></trkpt>
<trkpt lat="46.68107986" lon="6.78871393"><ele></ele><time>2014-5-2T7:52:11Z</time></trkpt>
<trkpt lat="46.68127298" lon="6.78901434"><ele></ele><time>2014-5-2T7:52:14Z</time></trkpt>
<trkpt lat="46.68129444" lon="6.78903580"><ele></ele><time>2014-5-2T7:52:17Z</time></trkpt>
<trkpt lat="46.68146610" lon="6.78920746"><ele></ele><time>2014-5-2T7:52:20Z</time></trkpt>
<trkpt lat="46.68157339" lon="6.78929329"><ele></ele><time>2014-5-2T7:52:23Z</time></trkpt>
<trkpt lat="46.68163776" lon="6.78922892"><ele></ele><time>2014-5-2T7:52:26Z</time></trkpt>
<trkpt lat="46.68198109" lon="6.78912163"><ele></ele><time>2014-5-2T7:52:29Z</time></trkpt>
<trkpt lat="46.68204546" lon="6.78907871"><ele></ele><time>2014-5-2T7:52:32Z</time></trkpt>
<trkpt lat="46.68195963" lon="6.78873539"><ele></ele><time>2014-5-2T7:52:35Z</time></trkpt>
<trkpt lat="46.68189526" lon="6.78845644"><ele></ele><time>2014-5-2T7:52:38Z</time></trkpt>
<trkpt lat="46.68185234" lon="6.78800583"><ele></ele><time>2014-5-2T7:52:41Z</time></trkpt>
<trkpt lat="46.68185234" lon="6.78796291"><ele></ele><time>2014-5-2T7:52:44Z</time></trkpt>
<trkpt lat="46.68217421" lon="6.78768396"><ele></ele><time>2014-5-2T7:52:47Z</time></trkpt>
<trkpt lat="46.68174505" lon="6.78719044"><ele></ele><time>2014-5-2T7:52:50Z</time></trkpt>
<trkpt lat="46.68159485" lon="6.78669691"><ele></ele><time>2014-5-2T7:52:53Z</time></trkpt>
<trkpt lat="46.68133736" lon="6.78628922"><ele></ele><time>2014-5-2T7:52:56Z</time></trkpt>
<trkpt lat="46.68123007" lon="6.78598881"><ele></ele><time>2014-5-2T7:52:59Z</time></trkpt>
<trkpt lat="46.68123007" lon="6.78586006"><ele></ele><time>2014-5-2T7:53:2Z</time></trkpt>
<trkpt lat="46.68123007" lon="6.78570986"><ele></ele><time>2014-5-2T7:53:5Z</time></trkpt>
<trkpt lat="46.68125153" lon="6.78562403"><ele></ele><time>2014-5-2T7:53:8Z</time></trkpt>
<trkpt lat="46.68125153" lon="6.78536654"><ele></ele><time>2014-5-2T7:53:11Z</time></trkpt>
<trkpt lat="46.68127298" lon="6.78508759"><ele></ele><time>2014-5-2T7:53:14Z</time></trkpt>
<trkpt lat="46.68127298" lon="6.78498030"><ele></ele><time>2014-5-2T7:53:17Z</time></trkpt>
<trkpt lat="46.68125153" lon="6.78491592"><ele></ele><time>2014-5-2T7:53:20Z</time></trkpt>
<trkpt lat="46.68127298" lon="6.78455114"><ele></ele><time>2014-5-2T7:53:23Z</time></trkpt>
<trkpt lat="46.68127298" lon="6.78450823"><ele></ele><time>2014-5-2T7:53:26Z</time></trkpt>
<trkpt lat="46.68127298" lon="6.78418636"><ele></ele><time>2014-5-2T7:53:29Z</time></trkpt>
<trkpt lat="46.68127298" lon="6.78416491"><ele></ele><time>2014-5-2T7:53:32Z</time></trkpt>
<trkpt lat="46.68125153" lon="6.78403616"><ele></ele><time>2014-5-2T7:53:35Z</time></trkpt>
<trkpt lat="46.68125153" lon="6.78403616"><ele></ele><time>2014-5-2T7:53:38Z</time></trkpt>
<trkpt lat="46.68120861" lon="6.78392887"><ele></ele><time>2014-5-2T7:53:41Z</time></trkpt>
<trkpt lat="46.68116570" lon="6.78384304"><ele></ele><time>2014-5-2T7:53:44Z</time></trkpt>
<trkpt lat="46.68112278" lon="6.78360701"><ele></ele><time>2014-5-2T7:53:47Z</time></trkpt>
<trkpt lat="46.68095112" lon="6.78304911"><ele></ele><time>2014-5-2T7:53:50Z</time></trkpt>
<trkpt lat="46.68084383" lon="6.78281307"><ele></ele><time>2014-5-2T7:53:53Z</time></trkpt>
<trkpt lat="46.68073654" lon="6.78257704"><ele></ele><time>2014-5-2T7:53:56Z</time></trkpt>
<trkpt lat="46.68073654" lon="6.78204060"><ele></ele><time>2014-5-2T7:53:59Z</time></trkpt>
<trkpt lat="46.68073654" lon="6.78191185"><ele></ele><time>2014-5-2T7:54:2Z</time></trkpt>
<trkpt lat="46.68172359" lon="6.78013086"><ele></ele><time>2014-5-2T7:54:5Z</time></trkpt>
<trkpt lat="46.68090820" lon="6.78107500"><ele></ele><time>2014-5-2T7:54:8Z</time></trkpt>
<trkpt lat="46.68056488" lon="6.78137541"><ele></ele><time>2014-5-2T7:54:11Z</time></trkpt>
<trkpt lat="46.68050051" lon="6.78113937"><ele></ele><time>2014-5-2T7:54:14Z</time></trkpt>
<trkpt lat="46.68043613" lon="6.78103209"><ele></ele><time>2014-5-2T7:54:17Z</time></trkpt>
<trkpt lat="46.68013573" lon="6.78088188"><ele></ele><time>2014-5-2T7:54:20Z</time></trkpt>
<trkpt lat="46.67985678" lon="6.78083897"><ele></ele><time>2014-5-2T7:54:23Z</time></trkpt>
<trkpt lat="46.67951345" lon="6.78075314"><ele></ele><time>2014-5-2T7:54:26Z</time></trkpt>
<trkpt lat="46.67940617" lon="6.78066730"><ele></ele><time>2014-5-2T7:54:29Z</time></trkpt>
<trkpt lat="46.67955637" lon="6.78040981"><ele></ele><time>2014-5-2T7:54:32Z</time></trkpt>
<trkpt lat="46.67957783" lon="6.78032398"><ele></ele><time>2014-5-2T7:54:35Z</time></trkpt>
<trkpt lat="46.67940617" lon="6.77995920"><ele></ele><time>2014-5-2T7:54:38Z</time></trkpt>
<trkpt lat="46.67917013" lon="6.77950859"><ele></ele><time>2014-5-2T7:54:41Z</time></trkpt>
<trkpt lat="46.67901993" lon="6.77912235"><ele></ele><time>2014-5-2T7:54:44Z</time></trkpt>
<trkpt lat="46.67895555" lon="6.77899361"><ele></ele><time>2014-5-2T7:54:47Z</time></trkpt>
<trkpt lat="46.67865515" lon="6.77888632"><ele></ele><time>2014-5-2T7:54:50Z</time></trkpt>
<trkpt lat="46.67856932" lon="6.77845716"><ele></ele><time>2014-5-2T7:54:53Z</time></trkpt>
<trkpt lat="46.67848349" lon="6.77824259"><ele></ele><time>2014-5-2T7:54:56Z</time></trkpt>
<trkpt lat="46.67801142" lon="6.77781343"><ele></ele><time>2014-5-2T7:54:59Z</time></trkpt>
<trkpt lat="46.67730331" lon="6.77753448"><ele></ele><time>2014-5-2T7:55:2Z</time></trkpt>
<trkpt lat="46.67702436" lon="6.77749157"><ele></ele><time>2014-5-2T7:55:5Z</time></trkpt>
<trkpt lat="46.67661667" lon="6.77740574"><ele></ele><time>2014-5-2T7:55:8Z</time></trkpt>
<trkpt lat="46.67627335" lon="6.77738428"><ele></ele><time>2014-5-2T7:55:11Z</time></trkpt>
<trkpt lat="46.67623043" lon="6.77736282"><ele></ele><time>2014-5-2T7:55:14Z</time></trkpt>
<trkpt lat="46.67612314" lon="6.77738428"><ele></ele><time>2014-5-2T7:55:17Z</time></trkpt>
<trkpt lat="46.67562962" lon="6.77740574"><ele></ele><time>2014-5-2T7:55:20Z</time></trkpt>
<trkpt lat="46.67535067" lon="6.77766323"><ele></ele><time>2014-5-2T7:55:23Z</time></trkpt>
<trkpt lat="46.67537212" lon="6.77766323"><ele></ele><time>2014-5-2T7:55:26Z</time></trkpt>
<trkpt lat="46.67543650" lon="6.77762032"><ele></ele><time>2014-5-2T7:55:29Z</time></trkpt>
<trkpt lat="46.67560816" lon="6.77785635"><ele></ele><time>2014-5-2T7:55:32Z</time></trkpt>
<trkpt lat="46.67599440" lon="6.77843571"><ele></ele><time>2014-5-2T7:55:35Z</time></trkpt>
<trkpt lat="46.67635918" lon="6.77903652"><ele></ele><time>2014-5-2T7:55:38Z</time></trkpt>
<trkpt lat="46.67665958" lon="6.77953005"><ele></ele><time>2014-5-2T7:55:41Z</time></trkpt>
<trkpt lat="46.67691708" lon="6.77993774"><ele></ele><time>2014-5-2T7:55:44Z</time></trkpt>
<trkpt lat="46.67741060" lon="6.77995920"><ele></ele><time>2014-5-2T7:55:47Z</time></trkpt>
<trkpt lat="46.67762518" lon="6.77993774"><ele></ele><time>2014-5-2T7:55:50Z</time></trkpt>
<trkpt lat="46.67777538" lon="6.77991629"><ele></ele><time>2014-5-2T7:55:53Z</time></trkpt>
<trkpt lat="46.67796850" lon="6.78002357"><ele></ele><time>2014-5-2T7:55:56Z</time></trkpt>
<trkpt lat="46.67803288" lon="6.78017378"><ele></ele><time>2014-5-2T7:55:59Z</time></trkpt>
<trkpt lat="46.67805433" lon="6.78043127"><ele></ele><time>2014-5-2T7:56:2Z</time></trkpt>
<trkpt lat="46.67794704" lon="6.78107500"><ele></ele><time>2014-5-2T7:56:5Z</time></trkpt>
<trkpt lat="46.67783976" lon="6.78141832"><ele></ele><time>2014-5-2T7:56:8Z</time></trkpt>
<trkpt lat="46.67734623" lon="6.78231955"><ele></ele><time>2014-5-2T7:56:11Z</time></trkpt>
<trkpt lat="46.67726040" lon="6.78249121"><ele></ele><time>2014-5-2T7:56:14Z</time></trkpt>
<trkpt lat="46.67723894" lon="6.78259850"><ele></ele><time>2014-5-2T7:56:17Z</time></trkpt>
<trkpt lat="46.67732477" lon="6.78283453"><ele></ele><time>2014-5-2T7:56:20Z</time></trkpt>
<trkpt lat="46.67751789" lon="6.78347826"><ele></ele><time>2014-5-2T7:56:23Z</time></trkpt>
<trkpt lat="46.67758226" lon="6.78367138"><ele></ele><time>2014-5-2T7:56:26Z</time></trkpt>
<trkpt lat="46.67766809" lon="6.78388596"><ele></ele><time>2014-5-2T7:56:29Z</time></trkpt>
<trkpt lat="46.67768955" lon="6.78392887"><ele></ele><time>2014-5-2T7:56:32Z</time></trkpt>
<trkpt lat="46.67771101" lon="6.78405762"><ele></ele><time>2014-5-2T7:56:35Z</time></trkpt>
<trkpt lat="46.67781830" lon="6.78476572"><ele></ele><time>2014-5-2T7:56:38Z</time></trkpt>
<trkpt lat="46.67786121" lon="6.78502321"><ele></ele><time>2014-5-2T7:56:41Z</time></trkpt>
<trkpt lat="46.67788267" lon="6.78530216"><ele></ele><time>2014-5-2T7:56:44Z</time></trkpt>
<trkpt lat="46.67790413" lon="6.78536654"><ele></ele><time>2014-5-2T7:56:47Z</time></trkpt>
<trkpt lat="46.67792559" lon="6.78560257"><ele></ele><time>2014-5-2T7:56:50Z</time></trkpt>
<trkpt lat="46.67798996" lon="6.78590298"><ele></ele><time>2014-5-2T7:56:53Z</time></trkpt>
<trkpt lat="46.67811871" lon="6.78624630"><ele></ele><time>2014-5-2T7:56:56Z</time></trkpt>
<trkpt lat="46.67820454" lon="6.78631067"><ele></ele><time>2014-5-2T7:56:59Z</time></trkpt>
<trkpt lat="46.67824745" lon="6.78633213"><ele></ele><time>2014-5-2T7:57:2Z</time></trkpt>
<trkpt lat="46.67826891" lon="6.78639650"><ele></ele><time>2014-5-2T7:57:5Z</time></trkpt>
<trkpt lat="46.67841911" lon="6.78663254"><ele></ele><time>2014-5-2T7:57:8Z</time></trkpt>
<trkpt lat="46.67848349" lon="6.78673983"><ele></ele><time>2014-5-2T7:57:11Z</time></trkpt>
<trkpt lat="46.67867661" lon="6.78706169"><ele></ele><time>2014-5-2T7:57:14Z</time></trkpt>
<trkpt lat="46.67874098" lon="6.78721189"><ele></ele><time>2014-5-2T7:57:17Z</time></trkpt>
<trkpt lat="46.67897701" lon="6.78757668"><ele></ele><time>2014-5-2T7:57:20Z</time></trkpt>
<trkpt lat="46.67901993" lon="6.78761959"><ele></ele><time>2014-5-2T7:57:23Z</time></trkpt>
<trkpt lat="46.67912722" lon="6.78783417"><ele></ele><time>2014-5-2T7:57:26Z</time></trkpt>
<trkpt lat="46.67912722" lon="6.78785563"><ele></ele><time>2014-5-2T7:57:29Z</time></trkpt>
<trkpt lat="46.67921305" lon="6.78804874"><ele></ele><time>2014-5-2T7:57:32Z</time></trkpt>
<trkpt lat="46.67932034" lon="6.78828478"><ele></ele><time>2014-5-2T7:57:35Z</time></trkpt>
<trkpt lat="46.67940617" lon="6.78839207"><ele></ele><time>2014-5-2T7:57:38Z</time></trkpt>
<trkpt lat="46.67940617" lon="6.78841352"><ele></ele><time>2014-5-2T7:57:41Z</time></trkpt>
<trkpt lat="46.67934179" lon="6.78841352"><ele></ele><time>2014-5-2T7:57:44Z</time></trkpt>
<trkpt lat="46.67899847" lon="6.78826332"><ele></ele><time>2014-5-2T7:57:47Z</time></trkpt>
<trkpt lat="46.67882681" lon="6.78819895"><ele></ele><time>2014-5-2T7:57:50Z</time></trkpt>
<trkpt lat="46.67863369" lon="6.78813457"><ele></ele><time>2014-5-2T7:57:53Z</time></trkpt>
<trkpt lat="46.67831182" lon="6.78811312"><ele></ele><time>2014-5-2T7:57:56Z</time></trkpt>
<trkpt lat="46.67811871" lon="6.78811312"><ele></ele><time>2014-5-2T7:57:59Z</time></trkpt>
<trkpt lat="46.67792559" lon="6.78813457"><ele></ele><time>2014-5-2T7:58:2Z</time></trkpt>
<trkpt lat="46.67794704" lon="6.78837061"><ele></ele><time>2014-5-2T7:58:5Z</time></trkpt>
<trkpt lat="46.67814016" lon="6.78875685"><ele></ele><time>2014-5-2T7:58:8Z</time></trkpt>
<trkpt lat="46.67822599" lon="6.78892851"><ele></ele><time>2014-5-2T7:58:11Z</time></trkpt>
<trkpt lat="46.67831182" lon="6.78916454"><ele></ele><time>2014-5-2T7:58:14Z</time></trkpt>
<trkpt lat="46.67829037" lon="6.78978682"><ele></ele><time>2014-5-2T7:58:17Z</time></trkpt>
<trkpt lat="46.67818308" lon="6.78985119"><ele></ele><time>2014-5-2T7:58:20Z</time></trkpt>
<trkpt lat="46.67809725" lon="6.78987265"><ele></ele><time>2014-5-2T7:58:23Z</time></trkpt>
<trkpt lat="46.67807579" lon="6.78985119"><ele></ele><time>2014-5-2T7:58:26Z</time></trkpt>
<trkpt lat="46.67796850" lon="6.78989410"><ele></ele><time>2014-5-2T7:58:29Z</time></trkpt>
<trkpt lat="46.67760372" lon="6.79019451"><ele></ele><time>2014-5-2T7:58:32Z</time></trkpt>
<trkpt lat="46.67711020" lon="6.79066658"><ele></ele><time>2014-5-2T7:58:35Z</time></trkpt>
<trkpt lat="46.67668104" lon="6.79113865"><ele></ele><time>2014-5-2T7:58:38Z</time></trkpt>
<trkpt lat="46.67644501" lon="6.79146051"><ele></ele><time>2014-5-2T7:58:41Z</time></trkpt>
<trkpt lat="46.67646646" lon="6.79171801"><ele></ele><time>2014-5-2T7:58:44Z</time></trkpt>
<trkpt lat="46.67646646" lon="6.79173946"><ele></ele><time>2014-5-2T7:58:47Z</time></trkpt>
<trkpt lat="46.67650938" lon="6.79216862"><ele></ele><time>2014-5-2T7:58:50Z</time></trkpt>
<trkpt lat="46.67640209" lon="6.79197550"><ele></ele><time>2014-5-2T7:58:53Z</time></trkpt>
<trkpt lat="46.67618752" lon="6.79173946"><ele></ele><time>2014-5-2T7:58:56Z</time></trkpt>
<trkpt lat="46.67620897" lon="6.79178238"><ele></ele><time>2014-5-2T7:58:59Z</time></trkpt>
<trkpt lat="46.67623043" lon="6.79184675"><ele></ele><time>2014-5-2T7:59:2Z</time></trkpt>
<trkpt lat="46.67631626" lon="6.79199696"><ele></ele><time>2014-5-2T7:59:5Z</time></trkpt>
<trkpt lat="46.67633772" lon="6.79214716"><ele></ele><time>2014-5-2T7:59:8Z</time></trkpt>
<trkpt lat="46.67633772" lon="6.79223299"><ele></ele><time>2014-5-2T7:59:11Z</time></trkpt>
<trkpt lat="46.67631626" lon="6.79240465"><ele></ele><time>2014-5-2T7:59:14Z</time></trkpt>
<trkpt lat="46.67629480" lon="6.79261923"><ele></ele><time>2014-5-2T7:59:17Z</time></trkpt>
<trkpt lat="46.67620897" lon="6.79291964"><ele></ele><time>2014-5-2T7:59:20Z</time></trkpt>
<trkpt lat="46.67618752" lon="6.79300547"><ele></ele><time>2014-5-2T7:59:23Z</time></trkpt>
<trkpt lat="46.67612314" lon="6.79324150"><ele></ele><time>2014-5-2T7:59:26Z</time></trkpt>
<trkpt lat="46.67610168" lon="6.79337025"><ele></ele><time>2014-5-2T7:59:29Z</time></trkpt>
<trkpt lat="46.67601585" lon="6.79362774"><ele></ele><time>2014-5-2T7:59:32Z</time></trkpt>
<trkpt lat="46.67597294" lon="6.79367065"><ele></ele><time>2014-5-2T7:59:35Z</time></trkpt>
<trkpt lat="46.67597294" lon="6.79369211"><ele></ele><time>2014-5-2T7:59:38Z</time></trkpt>
<trkpt lat="46.67599440" lon="6.79382086"><ele></ele><time>2014-5-2T7:59:41Z</time></trkpt>
<trkpt lat="46.67618752" lon="6.79431438"><ele></ele><time>2014-5-2T7:59:44Z</time></trkpt>
<trkpt lat="46.67620897" lon="6.79440022"><ele></ele><time>2014-5-2T7:59:47Z</time></trkpt>
<trkpt lat="46.67623043" lon="6.79493666"><ele></ele><time>2014-5-2T7:59:50Z</time></trkpt>
<trkpt lat="46.67620897" lon="6.79549456"><ele></ele><time>2014-5-2T7:59:53Z</time></trkpt>
<trkpt lat="46.67620897" lon="6.79609537"><ele></ele><time>2014-5-2T7:59:56Z</time></trkpt>
<trkpt lat="46.67620897" lon="6.79641724"><ele></ele><time>2014-5-2T7:59:59Z</time></trkpt>
<trkpt lat="46.67620897" lon="6.79652452"><ele></ele><time>2014-5-2T8:0:2Z</time></trkpt>
<trkpt lat="46.67620897" lon="6.79680347"><ele></ele><time>2014-5-2T8:0:5Z</time></trkpt>
<trkpt lat="46.67620897" lon="6.79688931"><ele></ele><time>2014-5-2T8:0:8Z</time></trkpt>
<trkpt lat="46.67616606" lon="6.79761887"><ele></ele><time>2014-5-2T8:0:11Z</time></trkpt>
<trkpt lat="46.67597294" lon="6.79770470"><ele></ele><time>2014-5-2T8:0:14Z</time></trkpt>
<trkpt lat="46.67590857" lon="6.79770470"><ele></ele><time>2014-5-2T8:0:17Z</time></trkpt>
<trkpt lat="46.67577982" lon="6.79772615"><ele></ele><time>2014-5-2T8:0:20Z</time></trkpt>
<trkpt lat="46.67541504" lon="6.79770470"><ele></ele><time>2014-5-2T8:0:23Z</time></trkpt>
<trkpt lat="46.67539358" lon="6.79768324"><ele></ele><time>2014-5-2T8:0:26Z</time></trkpt>
<trkpt lat="46.67532921" lon="6.79768324"><ele></ele><time>2014-5-2T8:0:29Z</time></trkpt>
<trkpt lat="46.67524338" lon="6.79766178"><ele></ele><time>2014-5-2T8:0:32Z</time></trkpt>
<trkpt lat="46.67509317" lon="6.79766178"><ele></ele><time>2014-5-2T8:0:35Z</time></trkpt>
<trkpt lat="46.67485714" lon="6.79781199"><ele></ele><time>2014-5-2T8:0:38Z</time></trkpt>
<trkpt lat="46.67481422" lon="6.79781199"><ele></ele><time>2014-5-2T8:0:41Z</time></trkpt>
<trkpt lat="46.67472839" lon="6.79776907"><ele></ele><time>2014-5-2T8:0:44Z</time></trkpt>
<trkpt lat="46.67459965" lon="6.79770470"><ele></ele><time>2014-5-2T8:0:47Z</time></trkpt>
<trkpt lat="46.67451382" lon="6.79766178"><ele></ele><time>2014-5-2T8:0:50Z</time></trkpt>
<trkpt lat="46.67432070" lon="6.79751158"><ele></ele><time>2014-5-2T8:0:53Z</time></trkpt>
<trkpt lat="46.67425632" lon="6.79746866"><ele></ele><time>2014-5-2T8:0:56Z</time></trkpt>
<trkpt lat="46.67417049" lon="6.79742575"><ele></ele><time>2014-5-2T8:0:59Z</time></trkpt>
<trkpt lat="46.67404175" lon="6.79736137"><ele></ele><time>2014-5-2T8:1:2Z</time></trkpt>
<trkpt lat="46.67397738" lon="6.79749012"><ele></ele><time>2014-5-2T8:1:5Z</time></trkpt>
<trkpt lat="46.67397738" lon="6.79772615"><ele></ele><time>2014-5-2T8:1:8Z</time></trkpt>
<trkpt lat="46.67399883" lon="6.79781199"><ele></ele><time>2014-5-2T8:1:11Z</time></trkpt>
<trkpt lat="46.67414904" lon="6.79830551"><ele></ele><time>2014-5-2T8:1:14Z</time></trkpt>
<trkpt lat="46.67417049" lon="6.79834843"><ele></ele><time>2014-5-2T8:1:17Z</time></trkpt>
<trkpt lat="46.67404175" lon="6.79879904"><ele></ele><time>2014-5-2T8:1:20Z</time></trkpt>
<trkpt lat="46.67399883" lon="6.79886341"><ele></ele><time>2014-5-2T8:1:23Z</time></trkpt>
<trkpt lat="46.67395592" lon="6.79892778"><ele></ele><time>2014-5-2T8:1:26Z</time></trkpt>
<trkpt lat="46.67425632" lon="6.79924965"><ele></ele><time>2014-5-2T8:1:29Z</time></trkpt>
<trkpt lat="46.67455673" lon="6.79957151"><ele></ele><time>2014-5-2T8:1:32Z</time></trkpt>
<trkpt lat="46.67453527" lon="6.79961443"><ele></ele><time>2014-5-2T8:1:35Z</time></trkpt>
<trkpt lat="46.67453527" lon="6.79963589"><ele></ele><time>2014-5-2T8:1:38Z</time></trkpt>
<trkpt lat="46.67451382" lon="6.79963589"><ele></ele><time>2014-5-2T8:1:41Z</time></trkpt>
<trkpt lat="46.67438507" lon="6.79976463"><ele></ele><time>2014-5-2T8:1:44Z</time></trkpt>
<trkpt lat="46.67434216" lon="6.79982901"><ele></ele><time>2014-5-2T8:1:47Z</time></trkpt>
<trkpt lat="46.67419195" lon="6.79997921"><ele></ele><time>2014-5-2T8:1:50Z</time></trkpt>
<trkpt lat="46.67412758" lon="6.80006504"><ele></ele><time>2014-5-2T8:1:53Z</time></trkpt>
<trkpt lat="46.67419195" lon="6.80021524"><ele></ele><time>2014-5-2T8:1:56Z</time></trkpt>
<trkpt lat="46.67457819" lon="6.80070877"><ele></ele><time>2014-5-2T8:1:59Z</time></trkpt>
<trkpt lat="46.67479277" lon="6.80083752"><ele></ele><time>2014-5-2T8:2:2Z</time></trkpt>
<trkpt lat="46.67490005" lon="6.80098772"><ele></ele><time>2014-5-2T8:2:5Z</time></trkpt>
<trkpt lat="46.67490005" lon="6.80103064"><ele></ele><time>2014-5-2T8:2:8Z</time></trkpt>
<trkpt lat="46.67496443" lon="6.80113792"><ele></ele><time>2014-5-2T8:2:11Z</time></trkpt>
<trkpt lat="46.67500734" lon="6.80120230"><ele></ele><time>2014-5-2T8:2:14Z</time></trkpt>
<trkpt lat="46.67500734" lon="6.80120230"><ele></ele><time>2014-5-2T8:2:17Z</time></trkpt>
<trkpt lat="46.67500734" lon="6.80120230"><ele></ele><time>2014-5-2T8:2:20Z</time></trkpt>
<trkpt lat="46.67498589" lon="6.80120230"><ele></ele><time>2014-5-2T8:2:23Z</time></trkpt>
<trkpt lat="46.67498589" lon="6.80124521"><ele></ele><time>2014-5-2T8:2:26Z</time></trkpt>
<trkpt lat="46.67505026" lon="6.80139542"><ele></ele><time>2014-5-2T8:2:29Z</time></trkpt>
<trkpt lat="46.67505026" lon="6.80145979"><ele></ele><time>2014-5-2T8:2:32Z</time></trkpt>
<trkpt lat="46.67505026" lon="6.80145979"><ele></ele><time>2014-5-2T8:2:35Z</time></trkpt>
<trkpt lat="46.67490005" lon="6.80154562"><ele></ele><time>2014-5-2T8:2:38Z</time></trkpt>
<trkpt lat="" lon=""><ele></ele><time>2014-5-2T8:2:41Z</time></trkpt>
<trkpt lat="-" lon=""><ele></ele><time>2014-5-2T8:2:44Z</time></trkpt>
<trkpt lat="46.38977051" lon="7.09442139"><ele></ele><time>2014-5-2T8:2:47Z</time></trkpt>
<trkpt lat="46.37432098" lon="7.07706213"><ele></ele><time>2014-5-2T8:2:50Z</time></trkpt>
<trkpt lat="46.36822701" lon="7.07646132"><ele></ele><time>2014-5-2T8:2:53Z</time></trkpt>
<trkpt lat="46.36088848" lon="7.06169844"><ele></ele><time>2014-5-2T8:2:56Z</time></trkpt>
<trkpt lat="46.35867834" lon="7.04684973"><ele></ele><time>2014-5-2T8:2:59Z</time></trkpt>
<trkpt lat="46.35303497" lon="7.02502728"><ele></ele><time>2014-5-2T8:3:2Z</time></trkpt>
<trkpt lat="46.34582520" lon="7.00927734"><ele></ele><time>2014-5-2T8:3:5Z</time></trkpt>
<trkpt lat="46.33880384" lon="7.00704139"><ele></ele><time>2014-5-2T8:3:8Z</time></trkpt>
<trkpt lat="" lon=""><ele></ele><time>2014-5-2T8:3:11Z</time></trkpt>
<trkpt lat="" lon=""><ele></ele><time>2014-5-2T8:3:14Z</time></trkpt>
<trkpt lat="46.56315755" lon="6.60320263"><ele></ele><time>2014-5-2T8:3:17Z</time></trkpt>
<trkpt lat="46.56310374" lon="6.60283333"><ele></ele><time>2014-5-2T8:3:20Z</time></trkpt>
<trkpt lat="46.56271935" lon="6.60304070"><ele></ele><time>2014-5-2T8:3:23Z</time></trkpt>
<trkpt lat="46.56263351" lon="6.60377026"><ele></ele><time>2014-5-2T8:3:26Z</time></trkpt>
<trkpt lat="46.58082962" lon="6.60587311"><ele></ele><time>2014-5-2T8:3:29Z</time></trkpt>
<trkpt lat="46.58095837" lon="6.60578728"><ele></ele><time>2014-5-2T8:3:32Z</time></trkpt>
<trkpt lat="46.58258915" lon="6.60050869"><ele></ele><time>2014-5-2T8:3:35Z</time></trkpt>
<trkpt lat="46.58267498" lon="6.60020828"><ele></ele><time>2014-5-2T8:3:38Z</time></trkpt>
<trkpt lat="46.58082962" lon="6.59570217"><ele></ele><time>2014-5-2T8:3:41Z</time></trkpt>
<trkpt lat="46.58114126" lon="6.59533186"><ele></ele><time>2014-5-2T8:3:44Z</time></trkpt>
<trkpt lat="" lon=""><ele></ele><time>2014-5-2T8:3:47Z</time></trkpt>
<trkpt lat="" lon=""><ele></ele><time>2014-5-2T8:3:50Z</time></trkpt>
<trkpt lat="46.56315755" lon="6.60320263"><ele></ele><time>2014-5-2T8:3:53Z</time></trkpt>
<trkpt lat="46.56310374" lon="6.60283333"><ele></ele><time>2014-5-2T8:3:56Z</time></trkpt>
<trkpt lat="46.56271935" lon="6.60304070"><ele></ele><time>2014-5-2T8:3:59Z</time></trkpt>
<trkpt lat="46.56263351" lon="6.60377026"><ele></ele><time>2014-5-2T8:4:2Z</time></trkpt>
<trkpt lat="46.55696869" lon="6.60132408"><ele></ele><time>2014-5-2T8:4:5Z</time></trkpt>
<trkpt lat="46.55417919" lon="6.62033558"><ele></ele><time>2014-5-2T8:4:8Z</time></trkpt>
<trkpt lat="46.55143261" lon="6.62093639"><ele></ele><time>2014-5-2T8:4:11Z</time></trkpt>
<trkpt lat="46.55104637" lon="6.62372589"><ele></ele><time>2014-5-2T8:4:14Z</time></trkpt>
<trkpt lat="46.54868603" lon="6.62381172"><ele></ele><time>2014-5-2T8:4:17Z</time></trkpt>
<trkpt lat="46.32123470" lon="6.94001198"><ele></ele><time>2014-5-2T8:4:20Z</time></trkpt>
<trkpt lat="46.32071972" lon="6.93863869"><ele></ele><time>2014-5-2T8:4:23Z</time></trkpt>
<trkpt lat="46.32312298" lon="6.95138454"><ele></ele><time>2014-5-2T8:4:26Z</time></trkpt>
<trkpt lat="46.32719994" lon="6.95898056"><ele></ele><time>2014-5-2T8:4:29Z</time></trkpt>
<trkpt lat="46.31913185" lon="6.97048187"><ele></ele><time>2014-5-2T8:4:32Z</time></trkpt>
<trkpt lat="46.31896019" lon="6.97078228"><ele></ele><time>2014-5-2T8:4:35Z</time></trkpt>
<trkpt lat="46.32183552" lon="7.00073719"><ele></ele><time>2014-5-2T8:4:38Z</time></trkpt>
<trkpt lat="46.36110306" lon="7.04923153"><ele></ele><time>2014-5-2T8:4:41Z</time></trkpt>
<trkpt lat="46.36054516" lon="7.05395222"><ele></ele><time>2014-5-2T8:4:44Z</time></trkpt>
<trkpt lat="46.36256218" lon="7.05051899"><ele></ele><time>2014-5-2T8:4:47Z</time></trkpt>
<trkpt lat="46.35436535" lon="7.03494072"><ele></ele><time>2014-5-2T8:4:50Z</time></trkpt>
<trkpt lat="46.34191990" lon="7.01743126"><ele></ele><time>2014-5-2T8:4:53Z</time></trkpt>
<trkpt lat="46.34264946" lon="7.01352596"><ele></ele><time>2014-5-2T8:4:56Z</time></trkpt>
<trkpt lat="46.34282112" lon="7.01331139"><ele></ele><time>2014-5-2T8:4:59Z</time></trkpt>
<trkpt lat="46.34294987" lon="7.01331139"><ele></ele><time>2014-5-2T8:5:2Z</time></trkpt>
<trkpt lat="46.34307861" lon="7.01271057"><ele></ele><time>2014-5-2T8:5:5Z</time></trkpt>
<trkpt lat="46.34355068" lon="7.01309681"><ele></ele><time>2014-5-2T8:5:8Z</time></trkpt>
<trkpt lat="" lon=""><ele></ele><time>2014-5-2T8:5:11Z</time></trkpt>
</trkseg></trk></gpx>